createdAt,value
2023-03-30T00:00:47.089Z,56.72
2023-03-30T00:01:47.104Z,47.11
2023-03-30T00:02:47.221Z,51.14
2023-03-30T00:03:47.425Z,54.00
2023-03-30T00:04:47.191Z,47.46
2023-03-30T00:05:47.037Z,49.96
2023-03-30T00:06:47.039Z,51.14
2023-03-30T00:07:47.030Z,52.13
2023-03-30T00:08:47.147Z,49.16
2023-03-30T00:09:47.075Z,43.99
2023-03-30T00:10:47.061Z,42.84
2023-03-30T00:11:47.005Z,43.64
2023-03-30T00:12:47.106Z,49.87
2023-03-30T00:13:46.990Z,54.33
2023-03-30T00:14:46.983Z,54.09
2023-03-30T00:15:46.995Z,50.21
2023-03-30T00:16:47.015Z,52.15
2023-03-30T00:17:47.064Z,50.67
2023-03-30T00:18:47.000Z,51.15
2023-03-30T00:19:46.953Z,60.05
2023-03-30T00:20:46.933Z,58.58
2023-03-30T00:21:46.942Z,50.21
2023-03-30T00:22:46.924Z,55.69
2023-03-30T00:23:46.921Z,49.27
2023-03-30T00:24:46.905Z,49.80
2023-03-30T00:25:46.896Z,45.82
2023-03-30T00:26:46.898Z,43.98
2023-03-30T00:27:46.906Z,50.17
2023-03-30T00:28:46.912Z,43.53
2023-03-30T00:29:46.871Z,48.94
2023-03-30T00:30:46.866Z,49.93
2023-03-30T00:31:46.935Z,58.52
2023-03-30T00:32:46.894Z,49.89
2023-03-30T00:33:47.756Z,51.19
2023-03-30T00:34:47.814Z,47.14
2023-03-30T00:35:46.865Z,43.99
2023-03-30T00:36:46.839Z,43.46
2023-03-30T00:37:46.817Z,43.38
2023-03-30T00:38:46.785Z,43.72
2023-03-30T00:39:46.795Z,48.65
2023-03-30T00:40:46.790Z,43.75
2023-03-30T00:41:46.785Z,48.58
2023-03-30T00:42:46.806Z,52.94
2023-03-30T00:43:46.752Z,63.18
2023-03-30T00:44:46.814Z,46.65
2023-03-30T00:45:46.769Z,49.59
2023-03-30T00:46:47.746Z,50.46
2023-03-30T00:47:46.761Z,43.54
2023-03-30T00:48:46.746Z,43.46
2023-03-30T00:49:46.712Z,50.06
2023-03-30T00:50:46.704Z,50.46
2023-03-30T00:51:46.692Z,50.56
2023-03-30T00:52:46.679Z,45.06
2023-03-30T00:53:46.693Z,46.43
2023-03-30T00:54:46.670Z,47.76
2023-03-30T00:55:46.668Z,48.63
2023-03-30T00:56:46.698Z,53.20
2023-03-30T00:57:46.667Z,46.20
2023-03-30T00:58:46.654Z,44.29
2023-03-30T00:59:46.697Z,51.31
2023-03-30T01:00:46.624Z,45.29
2023-03-30T01:01:46.683Z,47.94
2023-03-30T01:03:19.290Z,48.94
2023-03-30T01:03:46.805Z,43.91
2023-03-30T01:04:46.619Z,54.04
2023-03-30T01:05:46.577Z,47.99
2023-03-30T01:06:46.577Z,51.14
2023-03-30T01:07:46.580Z,49.90
2023-03-30T01:08:46.588Z,43.58
2023-03-30T01:09:47.309Z,43.15
2023-03-30T01:10:46.561Z,43.24
2023-03-30T01:11:46.566Z,43.21
2023-03-30T01:12:46.528Z,44.67
2023-03-30T01:13:46.535Z,58.77
2023-03-30T01:14:46.538Z,49.21
2023-03-30T01:15:46.567Z,43.58
2023-03-30T01:16:46.502Z,49.13
2023-03-30T01:17:46.525Z,42.98
2023-03-30T01:18:46.494Z,43.06
2023-03-30T01:19:46.499Z,43.45
2023-03-30T01:20:46.493Z,52.73
2023-03-30T01:21:46.464Z,50.01
2023-03-30T01:22:46.448Z,43.00
2023-03-30T01:23:46.454Z,43.66
2023-03-30T01:24:46.434Z,49.30
2023-03-30T01:25:46.472Z,43.36
2023-03-30T01:26:46.426Z,48.24
2023-03-30T01:27:46.457Z,45.06
2023-03-30T01:28:46.433Z,56.29
2023-03-30T01:29:46.410Z,49.69
2023-03-30T01:30:46.399Z,49.43
2023-03-30T01:31:46.392Z,43.14
2023-03-30T01:32:46.442Z,42.98
2023-03-30T01:33:46.377Z,43.07
2023-03-30T01:34:46.355Z,49.47
2023-03-30T01:35:46.452Z,43.20
2023-03-30T01:36:46.370Z,43.18
2023-03-30T01:37:46.355Z,50.07
2023-03-30T01:38:46.343Z,51.66
2023-03-30T01:39:46.317Z,42.83
2023-03-30T01:40:46.324Z,42.83
2023-03-30T01:41:46.330Z,43.20
2023-03-30T01:42:46.343Z,48.67
2023-03-30T01:43:46.350Z,57.75
2023-03-30T01:44:46.280Z,43.11
2023-03-30T01:45:46.299Z,42.82
2023-03-30T01:46:46.333Z,42.89
2023-03-30T01:47:46.332Z,43.56
2023-03-30T01:48:46.329Z,52.93
2023-03-30T01:49:46.254Z,44.06
2023-03-30T01:50:46.261Z,49.59
2023-03-30T01:51:46.253Z,42.82
2023-03-30T01:52:47.557Z,42.88
2023-03-30T01:53:46.202Z,49.29
2023-03-30T01:54:46.210Z,54.47
2023-03-30T01:55:46.192Z,49.55
2023-03-30T01:56:46.202Z,49.41
2023-03-30T01:57:46.217Z,50.53
2023-03-30T01:58:46.186Z,52.38
2023-03-30T01:59:46.201Z,42.85
2023-03-30T02:00:46.170Z,42.85
2023-03-30T02:01:46.191Z,43.84
2023-03-30T02:02:46.215Z,55.69
2023-03-30T02:03:46.236Z,44.63
2023-03-30T02:04:46.166Z,50.79
2023-03-30T02:05:46.120Z,52.94
2023-03-30T02:06:46.117Z,43.21
2023-03-30T02:07:46.103Z,44.05
2023-03-30T02:08:46.103Z,48.67
2023-03-30T02:09:46.074Z,43.92
2023-03-30T02:10:46.091Z,47.39
2023-03-30T02:11:46.059Z,52.94
2023-03-30T02:12:46.049Z,55.97
2023-03-30T02:13:46.049Z,43.91
2023-03-30T02:14:46.064Z,52.85
2023-03-30T02:15:46.047Z,43.24
2023-03-30T02:16:46.100Z,43.46
2023-03-30T02:17:46.083Z,52.24
2023-03-30T02:18:46.010Z,43.42
2023-03-30T02:19:46.001Z,52.62
2023-03-30T02:20:46.007Z,43.50
2023-03-30T02:21:45.990Z,43.80
2023-03-30T02:22:46.010Z,50.69
2023-03-30T02:23:46.012Z,49.07
2023-03-30T02:24:46.008Z,49.80
2023-03-30T02:25:45.937Z,44.17
2023-03-30T02:26:45.974Z,53.02
2023-03-30T02:27:46.386Z,53.29
2023-03-30T02:28:45.939Z,50.39
2023-03-30T02:29:46.021Z,45.12
2023-03-30T02:30:45.945Z,50.02
2023-03-30T02:31:46.004Z,56.21
2023-03-30T02:32:45.980Z,43.57
2023-03-30T02:33:45.930Z,43.25
2023-03-30T02:34:45.874Z,44.69
2023-03-30T02:35:45.917Z,60.19
2023-03-30T02:36:45.870Z,50.54
2023-03-30T02:37:45.871Z,43.88
2023-03-30T02:38:45.893Z,43.84
2023-03-30T02:39:45.858Z,52.43
2023-03-30T02:40:45.867Z,45.07
2023-03-30T02:41:45.823Z,44.45
2023-03-30T02:42:45.823Z,53.92
2023-03-30T02:43:45.845Z,49.84
2023-03-30T02:44:45.829Z,45.94
2023-03-30T02:45:45.835Z,48.54
2023-03-30T02:46:45.799Z,45.23
2023-03-30T02:47:45.823Z,52.89
2023-03-30T02:48:45.855Z,49.47
2023-03-30T02:49:45.785Z,51.53
2023-03-30T02:50:45.758Z,48.32
2023-03-30T02:51:45.756Z,55.57
2023-03-30T02:52:45.753Z,44.59
2023-03-30T02:53:46.339Z,51.47
2023-03-30T02:54:45.720Z,50.91
2023-03-30T02:55:45.751Z,50.05
2023-03-30T02:56:45.761Z,51.06
2023-03-30T02:57:45.696Z,52.81
2023-03-30T02:58:45.715Z,61.54
2023-03-30T02:59:45.705Z,55.57
2023-03-30T03:00:45.714Z,51.55
2023-03-30T03:01:45.707Z,53.21
2023-03-30T03:02:45.782Z,55.55
2023-03-30T03:03:45.747Z,44.68
2023-03-30T03:04:45.656Z,54.14
2023-03-30T03:05:45.665Z,53.95
2023-03-30T03:06:45.631Z,56.27
2023-03-30T03:07:45.628Z,54.59
2023-03-30T03:08:45.618Z,63.68
2023-03-30T03:09:46.237Z,57.51
2023-03-30T03:10:45.641Z,62.45
2023-03-30T03:11:45.670Z,50.65
2023-03-30T03:12:45.581Z,45.63
2023-03-30T03:13:45.626Z,45.86
2023-03-30T03:14:45.578Z,59.65
2023-03-30T03:15:45.610Z,52.78
2023-03-30T03:16:45.648Z,60.10
2023-03-30T03:17:45.602Z,64.01
2023-03-30T03:18:45.540Z,57.86
2023-03-30T03:19:45.537Z,56.70
2023-03-30T03:20:46.561Z,53.26
2023-03-30T03:21:45.523Z,51.90
2023-03-30T03:22:45.548Z,61.55
2023-03-30T03:23:45.508Z,68.05
2023-03-30T03:24:45.500Z,66.98
2023-03-30T03:25:45.543Z,66.06
2023-03-30T03:26:45.523Z,69.64
2023-03-30T03:27:45.485Z,64.17
2023-03-30T03:28:45.481Z,69.10
2023-03-30T03:29:45.454Z,63.84
2023-03-30T03:30:45.507Z,61.04
2023-03-30T03:31:45.516Z,62.67
2023-03-30T03:32:45.539Z,64.63
2023-03-30T03:33:45.464Z,63.63
2023-03-30T03:34:45.424Z,67.59
2023-03-30T03:35:45.471Z,59.52
2023-03-30T03:36:45.420Z,62.53
2023-03-30T03:37:45.404Z,68.83
2023-03-30T03:38:45.409Z,64.57
2023-03-30T03:39:45.423Z,63.85
2023-03-30T03:40:45.393Z,68.26
2023-03-30T03:41:45.399Z,64.36
2023-03-30T03:42:45.369Z,62.32
2023-03-30T03:43:45.343Z,65.08
2023-03-30T03:44:46.341Z,62.14
2023-03-30T03:45:45.352Z,59.34
2023-03-30T03:46:45.370Z,69.71
2023-03-30T04:03:57.398Z,65.43
2023-03-30T04:04:57.389Z,71.50
2023-03-30T04:05:57.328Z,61.83
2023-03-30T04:06:58.470Z,68.19
2023-03-30T04:07:58.492Z,69.81
2023-03-30T04:08:58.484Z,67.97
2023-03-30T04:09:58.457Z,58.21
2023-03-30T04:10:58.441Z,66.85
2023-03-30T04:11:58.438Z,64.98
2023-03-30T04:12:58.463Z,66.03
2023-03-30T04:13:58.437Z,68.13
2023-03-30T04:14:58.449Z,63.28
2023-03-30T04:15:58.422Z,69.54
2023-03-30T04:16:58.406Z,72.61
2023-03-30T04:17:58.434Z,69.88
2023-03-30T04:18:59.064Z,67.98
2023-03-30T04:19:58.402Z,63.57
2023-03-30T04:20:58.364Z,66.41
2023-03-30T04:21:58.363Z,65.38
2023-03-30T04:22:58.363Z,66.28
2023-03-30T04:23:58.349Z,69.96
2023-03-30T04:24:58.354Z,69.38
2023-03-30T04:25:58.337Z,70.32
2023-03-30T04:26:58.324Z,69.30
2023-03-30T04:27:58.326Z,67.00
2023-03-30T04:28:59.059Z,70.02
2023-03-30T04:29:58.359Z,67.41
2023-03-30T04:30:58.317Z,65.00
2023-03-30T04:31:58.302Z,63.96
2023-03-30T04:32:58.321Z,70.63
2023-03-30T04:33:58.254Z,68.81
2023-03-30T04:34:58.272Z,66.91
2023-03-30T04:35:58.316Z,70.23
2023-03-30T04:36:58.311Z,66.57
2023-03-30T04:37:58.261Z,66.84
2023-03-30T04:38:58.238Z,73.30
2023-03-30T04:39:58.240Z,69.30
2023-03-30T04:40:58.231Z,69.47
2023-03-30T04:41:58.205Z,71.33
2023-03-30T04:42:58.238Z,71.25
2023-03-30T04:43:58.218Z,71.05
2023-03-30T04:44:59.131Z,70.27
2023-03-30T04:45:58.275Z,73.27
2023-03-30T04:46:58.217Z,69.74
2023-03-30T04:47:58.198Z,68.67
2023-03-30T04:48:58.173Z,71.41
2023-03-30T04:49:58.152Z,72.20
2023-03-30T04:50:59.084Z,66.89
2023-03-30T04:51:58.158Z,66.28
2023-03-30T04:52:58.149Z,69.69
2023-03-30T04:53:58.136Z,63.59
2023-03-30T04:54:58.125Z,65.26
2023-03-30T04:55:58.142Z,68.97
2023-03-30T04:56:58.115Z,70.46
2023-03-30T04:57:58.130Z,67.59
2023-03-30T04:58:58.091Z,64.85
2023-03-30T04:59:58.075Z,73.74
2023-03-30T05:00:58.168Z,68.13
2023-03-30T05:01:58.206Z,67.10
2023-03-30T05:02:58.189Z,68.07
2023-03-30T05:03:58.093Z,64.59
2023-03-30T05:04:58.110Z,71.02
2023-03-30T05:05:58.020Z,74.29
2023-03-30T05:06:58.033Z,71.72
2023-03-30T05:07:58.532Z,69.95
2023-03-30T05:08:58.018Z,64.47
2023-03-30T05:09:58.599Z,72.19
2023-03-30T05:10:58.009Z,63.64
2023-03-30T05:11:57.994Z,73.43
2023-03-30T05:12:58.002Z,71.73
2023-03-30T05:13:57.996Z,73.98
2023-03-30T05:14:57.981Z,65.03
2023-03-30T05:15:58.045Z,70.19
2023-03-30T05:16:58.005Z,66.63
2023-03-30T05:17:57.980Z,68.93
2023-03-30T05:18:58.000Z,72.33
2023-03-30T05:19:57.942Z,72.71
2023-03-30T05:20:58.011Z,74.63
2023-03-30T05:21:57.950Z,66.37
2023-03-30T05:22:57.930Z,68.42
2023-03-30T05:23:57.920Z,71.33
2023-03-30T05:24:58.626Z,69.11
2023-03-30T05:25:57.922Z,71.09
2023-03-30T05:26:57.966Z,74.51
2023-03-30T05:27:57.893Z,71.10
2023-03-30T05:28:57.885Z,72.93
2023-03-30T05:29:57.864Z,72.49
2023-03-30T05:30:57.910Z,70.38
2023-03-30T05:31:57.845Z,68.83
2023-03-30T05:32:57.921Z,73.45
2023-03-30T05:33:57.821Z,69.71
2023-03-30T05:34:57.825Z,72.44
2023-03-30T05:35:57.868Z,72.14
2023-03-30T05:36:57.858Z,72.05
2023-03-30T05:37:57.809Z,70.53
2023-03-30T05:38:57.792Z,73.31
2023-03-30T05:39:57.849Z,73.49
2023-03-30T05:40:57.784Z,73.08
2023-03-30T05:41:57.784Z,67.24
2023-03-30T05:42:57.758Z,70.68
2023-03-30T05:43:57.809Z,72.67
2023-03-30T05:44:57.750Z,70.55
2023-03-30T05:45:57.758Z,68.50
2023-03-30T05:46:57.710Z,70.50
2023-03-30T05:47:57.752Z,71.06
2023-03-30T05:48:57.740Z,65.20
2023-03-30T05:49:57.721Z,71.75
2023-03-30T05:50:58.267Z,70.85
2023-03-30T05:51:57.704Z,70.24
2023-03-30T05:52:57.676Z,73.20
2023-03-30T05:53:57.665Z,69.54
2023-03-30T05:54:57.666Z,71.22
2023-03-30T05:55:57.675Z,63.78
2023-03-30T05:56:57.695Z,73.06
2023-03-30T05:57:57.641Z,69.36
2023-03-30T05:58:57.630Z,67.92
2023-03-30T05:59:57.657Z,68.73
2023-03-30T06:03:55.378Z,68.17
2023-03-30T06:04:56.394Z,67.61
2023-03-30T06:05:56.399Z,67.86
2023-03-30T06:06:56.331Z,65.99
2023-03-30T06:07:56.963Z,68.52
2023-03-30T06:08:56.352Z,65.70
2023-03-30T06:09:56.340Z,73.13
2023-03-30T06:10:56.335Z,72.32
2023-03-30T06:11:56.332Z,70.04
2023-03-30T06:12:56.316Z,66.18
2023-03-30T06:13:56.332Z,71.44
2023-03-30T06:14:56.330Z,66.91
2023-03-30T06:15:56.354Z,68.44
2023-03-30T06:16:56.306Z,68.82
2023-03-30T06:17:57.095Z,70.08
2023-03-30T06:18:56.297Z,68.58
2023-03-30T06:19:56.278Z,69.05
2023-03-30T06:20:56.258Z,72.39
2023-03-30T06:21:56.244Z,65.02
2023-03-30T06:22:56.229Z,63.93
2023-03-30T06:23:56.227Z,72.01
2023-03-30T06:24:56.214Z,63.10
2023-03-30T06:25:56.234Z,70.46
2023-03-30T06:26:56.214Z,70.74
2023-03-30T06:27:58.010Z,66.32
2023-03-30T06:28:56.202Z,70.46
2023-03-30T06:29:56.184Z,67.40
2023-03-30T06:30:57.005Z,62.66
2023-03-30T06:31:56.221Z,68.23
2023-03-30T06:32:56.985Z,66.27
2023-03-30T06:33:56.266Z,65.55
2023-03-30T06:34:56.206Z,69.98
2023-03-30T06:35:56.261Z,66.80
2023-03-30T06:36:56.234Z,63.92
2023-03-30T06:37:56.226Z,65.70
2023-03-30T06:38:56.242Z,71.84
2023-03-30T06:39:56.099Z,62.10
2023-03-30T06:40:56.108Z,68.46
2023-03-30T06:41:56.111Z,72.14
2023-03-30T06:42:56.104Z,72.80
2023-03-30T06:43:56.059Z,67.50
2023-03-30T06:44:56.066Z,71.02
2023-03-30T06:45:56.140Z,67.44
2023-03-30T06:46:56.045Z,71.68
2023-03-30T06:47:56.291Z,69.10
2023-03-30T06:48:56.037Z,68.79
2023-03-30T06:49:56.048Z,64.82
2023-03-30T06:50:56.043Z,67.38
2023-03-30T06:51:56.146Z,73.88
2023-03-30T06:52:55.993Z,66.94
2023-03-30T06:53:55.991Z,67.50
2023-03-30T06:54:56.004Z,66.85
2023-03-30T06:55:55.980Z,66.53
2023-03-30T06:56:56.065Z,65.62
2023-03-30T06:57:55.988Z,67.06
2023-03-30T06:58:56.034Z,62.06
2023-03-30T06:59:56.016Z,71.09
2023-03-30T07:00:55.969Z,66.46
2023-03-30T07:01:56.359Z,72.36
2023-03-30T07:02:55.964Z,63.59
2023-03-30T07:03:55.937Z,71.61
2023-03-30T07:04:55.946Z,71.27
2023-03-30T07:05:55.906Z,71.02
2023-03-30T07:06:56.480Z,69.27
2023-03-30T07:07:55.926Z,63.98
2023-03-30T07:08:55.891Z,61.22
2023-03-30T07:09:55.864Z,66.28
2023-03-30T07:10:55.934Z,70.23
2023-03-30T07:11:56.589Z,66.83
2023-03-30T07:12:56.864Z,68.27
2023-03-30T07:13:55.872Z,70.26
2023-03-30T07:14:55.894Z,67.40
2023-03-30T07:15:55.872Z,66.18
2023-03-30T07:16:55.886Z,67.84
2023-03-30T07:17:55.928Z,68.80
2023-03-30T07:18:55.822Z,64.74
2023-03-30T07:19:55.868Z,71.39
2023-03-30T07:20:55.805Z,67.69
2023-03-30T07:21:55.811Z,67.15
2023-03-30T07:22:55.814Z,70.13
2023-03-30T07:23:56.538Z,66.03
2023-03-30T07:24:55.768Z,66.64
2023-03-30T07:25:55.748Z,66.16
2023-03-30T07:26:55.776Z,72.30
2023-03-30T07:27:55.745Z,70.62
2023-03-30T07:28:55.740Z,68.38
2023-03-30T07:29:55.730Z,72.18
2023-03-30T07:30:55.776Z,65.32
2023-03-30T07:31:55.711Z,71.94
2023-03-30T07:32:58.214Z,64.80
2023-03-30T07:33:56.726Z,71.57
2023-03-30T07:34:55.707Z,67.34
2023-03-30T07:35:55.787Z,67.38
2023-03-30T07:36:55.711Z,67.43
2023-03-30T07:38:57.299Z,67.89
2023-03-30T07:39:55.725Z,69.24
2023-03-30T07:40:55.716Z,72.29
2023-03-30T07:41:55.746Z,67.55
2023-03-30T07:42:55.660Z,74.00
2023-03-30T07:43:55.635Z,66.54
2023-03-30T07:44:55.603Z,66.90
2023-03-30T07:45:55.631Z,67.02
2023-03-30T07:46:55.622Z,71.78
2023-03-30T07:47:55.628Z,69.85
2023-03-30T07:48:55.629Z,65.43
2023-03-30T07:49:55.589Z,67.73
2023-03-30T07:50:55.568Z,71.22
2023-03-30T07:51:56.568Z,68.36
2023-03-30T07:52:55.548Z,68.67
2023-03-30T07:53:55.562Z,69.76
2023-03-30T07:54:55.586Z,67.31
2023-03-30T07:55:55.544Z,67.03
2023-03-30T07:56:55.598Z,69.13
2023-03-30T07:57:55.542Z,67.65
2023-03-30T07:58:55.525Z,69.98
2023-03-30T07:59:55.505Z,67.86
2023-03-30T08:00:55.482Z,69.91
2023-03-30T08:01:55.541Z,67.32
2023-03-30T08:02:55.643Z,68.61
2023-03-30T08:03:55.564Z,68.90
2023-03-30T08:04:55.791Z,66.37
2023-03-30T08:05:56.505Z,66.96
2023-03-30T08:06:55.523Z,73.62
2023-03-30T08:07:57.013Z,70.21
2023-03-30T08:08:55.542Z,70.68
2023-03-30T08:09:55.430Z,69.21
2023-03-30T08:10:55.481Z,75.50
2023-03-30T08:11:55.445Z,66.96
2023-03-30T08:12:55.405Z,68.82
2023-03-30T08:13:55.402Z,60.79
2023-03-30T08:14:55.428Z,70.18
2023-03-30T08:15:55.428Z,72.70
2023-03-30T08:16:55.362Z,69.87
2023-03-30T08:17:55.433Z,71.91
2023-03-30T08:18:55.368Z,69.52
2023-03-30T08:19:55.329Z,66.24
2023-03-30T08:20:55.362Z,65.55
2023-03-30T08:21:55.367Z,67.93
2023-03-30T08:22:55.350Z,63.45
2023-03-30T08:23:55.366Z,72.32
2023-03-30T08:24:55.301Z,72.61
2023-03-30T08:25:55.481Z,59.61
2023-03-30T08:26:55.382Z,65.93
2023-03-30T08:27:55.288Z,67.08
2023-03-30T08:28:55.334Z,71.09
2023-03-30T08:29:55.297Z,69.81
2023-03-30T08:30:55.292Z,64.16
2023-03-30T08:31:55.305Z,65.47
2023-03-30T08:32:55.396Z,69.14
2023-03-30T08:33:55.305Z,68.54
2023-03-30T08:34:55.245Z,67.13
2023-03-30T08:35:55.230Z,62.66
2023-03-30T08:36:55.266Z,65.76
2023-03-30T08:37:55.241Z,67.73
2023-03-30T08:38:55.210Z,68.96
2023-03-30T08:39:55.232Z,73.08
2023-03-30T08:40:55.200Z,67.30
2023-03-30T08:41:55.253Z,68.88
2023-03-30T08:42:55.207Z,72.08
2023-03-30T08:43:55.193Z,62.19
2023-03-30T08:44:55.164Z,67.64
2023-03-30T08:45:55.261Z,70.66
2023-03-30T08:46:55.143Z,71.04
2023-03-30T08:47:55.196Z,70.10
2023-03-30T08:48:55.148Z,66.32
2023-03-30T08:49:55.137Z,71.24
2023-03-30T08:50:55.139Z,71.69
2023-03-30T08:51:55.118Z,72.86
2023-03-30T08:52:55.216Z,66.95
2023-03-30T08:53:55.101Z,60.38
2023-03-30T08:54:55.081Z,66.67
2023-03-30T08:55:55.076Z,66.80
2023-03-30T08:56:55.075Z,69.05
2023-03-30T08:57:55.118Z,70.74
2023-03-30T08:58:55.157Z,64.18
2023-03-30T08:59:55.056Z,69.15
2023-03-30T09:00:56.065Z,66.92
2023-03-30T09:01:55.062Z,65.77
2023-03-30T09:02:55.097Z,69.23
2023-03-30T09:03:55.053Z,67.94
2023-03-30T09:04:55.082Z,71.11
2023-03-30T09:05:55.007Z,67.97
2023-03-30T09:06:54.988Z,68.09
2023-03-30T09:07:55.088Z,64.61
2023-03-30T09:08:56.152Z,65.24
2023-03-30T09:09:55.038Z,71.76
2023-03-30T09:10:54.973Z,65.49
2023-03-30T09:11:54.947Z,60.76
2023-03-30T09:12:54.991Z,69.48
2023-03-30T09:13:54.961Z,69.27
2023-03-30T09:14:54.975Z,67.59
2023-03-30T09:15:54.906Z,68.18
2023-03-30T09:16:54.991Z,72.96
2023-03-30T09:17:54.972Z,66.77
2023-03-30T09:18:54.929Z,65.43
2023-03-30T09:19:54.925Z,65.62
2023-03-30T09:20:54.915Z,71.81
2023-03-30T09:21:54.929Z,69.91
2023-03-30T09:22:55.489Z,64.81
2023-03-30T09:23:54.866Z,67.31
2023-03-30T09:24:54.922Z,66.87
2023-03-30T09:25:54.937Z,67.10
2023-03-30T09:26:54.884Z,67.04
2023-03-30T09:27:54.824Z,69.75
2023-03-30T09:28:54.842Z,68.59
2023-03-30T09:29:54.859Z,67.72
2023-03-30T09:30:54.871Z,68.33
2023-03-30T09:31:54.880Z,68.90
2023-03-30T09:32:54.833Z,69.36
2023-03-30T09:33:54.813Z,61.47
2023-03-30T09:34:54.802Z,63.30
2023-03-30T09:35:54.964Z,68.94
2023-03-30T09:36:54.790Z,68.86
2023-03-30T09:37:55.864Z,66.59
2023-03-30T09:38:54.769Z,65.88
2023-03-30T09:39:54.733Z,66.81
2023-03-30T09:40:54.749Z,67.24
2023-03-30T09:41:54.784Z,65.44
2023-03-30T09:42:55.572Z,65.42
2023-03-30T09:43:54.719Z,66.76
2023-03-30T09:44:54.752Z,68.20
2023-03-30T09:45:54.892Z,71.36
2023-03-30T09:46:54.713Z,65.92
2023-03-30T09:47:54.824Z,64.01
2023-03-30T09:48:54.666Z,69.18
2023-03-30T09:49:54.662Z,66.10
2023-03-30T09:50:54.672Z,71.21
2023-03-30T09:51:54.678Z,66.77
2023-03-30T09:52:55.848Z,66.19
2023-03-30T09:53:54.661Z,65.90
2023-03-30T09:54:54.621Z,68.91
2023-03-30T09:55:54.615Z,68.60
2023-03-30T09:56:54.671Z,66.72
2023-03-30T09:57:54.616Z,69.52
2023-03-30T09:58:54.616Z,64.55
2023-03-30T09:59:54.611Z,70.86
2023-03-30T10:00:54.606Z,65.94
2023-03-30T10:01:54.595Z,67.37
2023-03-30T10:02:54.670Z,66.77
2023-03-30T10:03:54.787Z,67.36
2023-03-30T10:04:54.652Z,68.87
2023-03-30T10:05:54.566Z,69.21
2023-03-30T10:06:54.602Z,67.32
2023-03-30T10:07:54.652Z,66.20
2023-03-30T10:08:54.581Z,66.06
2023-03-30T10:09:54.532Z,67.02
2023-03-30T10:10:54.520Z,65.48
2023-03-30T10:11:54.580Z,61.95
2023-03-30T10:12:54.549Z,66.10
2023-03-30T10:13:54.509Z,64.74
2023-03-30T10:14:54.555Z,67.20
2023-03-30T10:15:54.597Z,65.08
2023-03-30T10:16:54.492Z,67.83
2023-03-30T10:17:54.571Z,65.01
2023-03-30T10:18:54.597Z,69.79
2023-03-30T10:20:03.651Z,63.25
2023-03-30T10:20:56.560Z,69.21
2023-03-30T10:21:54.436Z,63.84
2023-03-30T10:22:54.500Z,62.45
2023-03-30T10:23:54.427Z,66.12
2023-03-30T10:24:54.472Z,65.45
2023-03-30T10:25:54.378Z,65.45
2023-03-30T10:26:54.456Z,68.20
2023-03-30T10:27:54.401Z,65.14
2023-03-30T10:28:54.401Z,65.81
2023-03-30T10:29:54.396Z,68.53
2023-03-30T10:30:54.420Z,64.70
2023-03-30T10:31:54.392Z,64.97
2023-03-30T10:32:54.362Z,66.50
2023-03-30T10:33:54.344Z,67.85
2023-03-30T10:34:54.360Z,64.99
2023-03-30T10:35:54.355Z,64.27
2023-03-30T10:36:54.929Z,69.38
2023-03-30T10:37:54.324Z,65.37
2023-03-30T10:38:54.297Z,65.52
2023-03-30T10:39:54.339Z,64.46
2023-03-30T10:40:54.385Z,57.31
2023-03-30T10:41:54.346Z,68.16
2023-03-30T10:42:54.386Z,65.76
2023-03-30T10:43:54.258Z,66.63
2023-03-30T10:44:54.298Z,69.81
2023-03-30T10:45:54.417Z,64.55
2023-03-30T10:46:54.347Z,67.16
2023-03-30T10:47:54.297Z,64.49
2023-03-30T10:48:54.230Z,69.50
2023-03-30T10:49:54.277Z,63.67
2023-03-30T10:50:54.215Z,67.28
2023-03-30T10:51:54.336Z,65.76
2023-03-30T10:52:58.836Z,66.36
2023-03-30T10:53:56.860Z,68.14
2023-03-30T10:54:54.187Z,70.57
2023-03-30T10:55:54.178Z,68.65
2023-03-30T10:56:55.025Z,70.36
2023-03-30T10:57:54.165Z,67.05
2023-03-30T10:58:54.210Z,67.90
2023-03-30T10:59:54.152Z,67.47
2023-03-30T11:00:55.101Z,67.59
2023-03-30T11:01:54.192Z,67.72
2023-03-30T11:02:54.256Z,69.00
2023-03-30T11:03:54.274Z,67.95
2023-03-30T11:04:54.146Z,67.54
2023-03-30T11:05:54.139Z,64.49
2023-03-30T11:06:54.102Z,66.98
2023-03-30T11:07:54.123Z,67.81
2023-03-30T11:08:54.276Z,58.91
2023-03-30T11:09:54.106Z,64.15
2023-03-30T11:10:54.120Z,67.95
2023-03-30T11:11:54.061Z,65.58
2023-03-30T11:12:54.046Z,68.85
2023-03-30T11:13:54.101Z,66.15
2023-03-30T11:14:54.048Z,60.04
2023-03-30T11:15:54.035Z,69.68
2023-03-30T11:16:54.118Z,66.21
2023-03-30T11:17:54.063Z,64.90
2023-03-30T11:18:54.108Z,61.89
2023-03-30T11:19:54.039Z,69.16
2023-03-30T11:20:54.007Z,67.27
2023-03-30T11:21:53.993Z,66.65
2023-03-30T11:22:53.988Z,69.84
2023-03-30T11:23:53.980Z,66.52
2023-03-30T11:24:53.958Z,66.46
2023-03-30T11:25:53.984Z,68.86
2023-03-30T11:26:53.970Z,67.07
2023-03-30T11:27:56.238Z,66.87
2023-03-30T11:28:54.945Z,69.21
2023-03-30T11:29:54.054Z,67.57
2023-03-30T11:30:53.947Z,69.09
2023-03-30T11:31:53.965Z,69.75
2023-03-30T11:32:53.966Z,68.81
2023-03-30T11:33:53.906Z,66.99
2023-03-30T11:34:54.011Z,63.76
2023-03-30T11:35:54.369Z,65.96
2023-03-30T11:36:53.914Z,66.96
2023-03-30T11:37:53.912Z,63.75
2023-03-30T11:38:53.888Z,69.12
2023-03-30T11:39:53.876Z,64.53
2023-03-30T11:40:53.851Z,67.76
2023-03-30T11:41:53.849Z,68.15
2023-03-30T11:42:53.874Z,68.77
2023-03-30T11:43:53.810Z,65.05
2023-03-30T11:44:53.819Z,66.08
2023-03-30T11:45:53.989Z,66.45
2023-03-30T11:46:53.864Z,67.83
2023-03-30T11:47:53.846Z,67.15
2023-03-30T11:48:53.780Z,64.50
2023-03-30T11:49:53.820Z,67.07
2023-03-30T11:50:53.826Z,63.82
2023-03-30T11:51:53.779Z,65.66
2023-03-30T11:52:53.788Z,68.06
2023-03-30T11:53:53.779Z,67.90
2023-03-30T11:55:03.070Z,67.02
2023-03-30T11:55:55.733Z,66.77
2023-03-30T11:56:53.864Z,67.77
2023-03-30T11:57:53.776Z,69.41
2023-03-30T11:58:53.748Z,64.98
2023-03-30T11:59:53.733Z,65.65
2023-03-30T12:00:53.715Z,64.56
2023-03-30T12:01:54.551Z,67.12
2023-03-30T12:02:53.905Z,66.80
2023-03-30T12:03:54.745Z,68.37
2023-03-30T12:04:53.707Z,66.98
2023-03-30T12:05:53.656Z,70.15
2023-03-30T12:06:53.641Z,68.42
2023-03-30T12:07:53.737Z,69.33
2023-03-30T12:08:53.843Z,66.38
2023-03-30T12:09:53.663Z,69.09
2023-03-30T12:10:53.634Z,68.33
2023-03-30T12:11:53.612Z,68.66
2023-03-30T12:12:53.611Z,70.88
2023-03-30T12:13:53.639Z,68.02
2023-03-30T12:14:53.618Z,68.84
2023-03-30T12:15:53.788Z,71.46
2023-03-30T12:16:53.599Z,70.94
2023-03-30T12:17:53.658Z,74.75
2023-03-30T12:18:53.533Z,75.66
2023-03-30T12:19:56.411Z,78.16
2023-03-30T12:20:54.528Z,75.96
2023-03-30T12:21:53.547Z,74.57
2023-03-30T12:22:53.518Z,72.89
2023-03-30T12:23:53.505Z,75.52
2023-03-30T12:24:53.596Z,68.86
2023-03-30T12:25:53.514Z,68.43
2023-03-30T12:27:54.464Z,71.27
2023-03-30T12:29:32.607Z,71.25
2023-03-30T12:30:01.788Z,71.51
2023-03-30T12:30:55.484Z,74.19
2023-03-30T12:31:53.556Z,75.54
2023-03-30T12:32:53.462Z,71.68
2023-03-30T12:33:53.450Z,69.06
2023-03-30T12:34:53.456Z,75.35
2023-03-30T12:35:53.546Z,75.40
2023-03-30T12:36:53.439Z,72.82
2023-03-30T12:37:53.386Z,74.98
2023-03-30T12:38:53.402Z,73.82
2023-03-30T12:39:53.390Z,75.11
2023-03-30T12:40:53.484Z,75.03
2023-03-30T12:41:55.352Z,70.84
2023-03-30T12:42:53.367Z,71.17
2023-03-30T12:43:53.337Z,72.98
2023-03-30T12:44:53.386Z,70.41
2023-03-30T12:45:53.403Z,73.66
2023-03-30T12:46:53.334Z,74.00
2023-03-30T12:47:53.395Z,72.03
2023-03-30T12:48:53.346Z,72.59
2023-03-30T12:49:53.308Z,72.84
2023-03-30T12:50:53.369Z,71.06
2023-03-30T12:51:53.318Z,70.79
2023-03-30T12:52:53.318Z,71.52
2023-03-30T12:53:53.271Z,72.79
2023-03-30T12:54:53.282Z,71.56
2023-03-30T12:55:54.092Z,73.06
2023-03-30T12:56:53.300Z,75.42
2023-03-30T12:57:53.261Z,68.69
2023-03-30T12:58:53.260Z,74.23
2023-03-30T12:59:53.267Z,68.80
2023-03-30T13:00:53.273Z,75.39
2023-03-30T13:01:53.251Z,69.58
2023-03-30T13:02:53.242Z,72.36
2023-03-30T13:03:54.110Z,74.02
2023-03-30T13:04:53.207Z,69.50
2023-03-30T13:05:53.261Z,74.08
2023-03-30T13:06:53.189Z,71.99
2023-03-30T13:07:53.277Z,70.28
2023-03-30T13:08:53.180Z,72.85
2023-03-30T13:09:53.224Z,75.34
2023-03-30T13:10:53.146Z,71.34
2023-03-30T13:11:53.149Z,69.19
2023-03-30T13:12:53.117Z,71.00
2023-03-30T13:13:54.136Z,71.64